NKS561 KLAS-KLAX
Flight info
| Callsign | NKS561 |
|---|---|
| Flight time | 0h 45m |
| Altitude | 28000 |
| Route | RADYR2 BLAQQ SHTNR ANJLL4 |
| Aircraft | A320/M-SDE3FGHIRWY/LB1 |
Departure
| Time | 2026-05-04 09:10 |
|---|---|
| Airport | Harry Reid International Airport (KLAS) |
Arrival
| Time | 2026-05-04 09:55 |
|---|---|
| Airport | Los Angeles International Airport (KLAX) |
| Time | Latitude | Longitude | Altitude | Speed | Heading |
|---|---|---|---|---|---|
| 2026-05-04 08:35 | 36.08492 | -115.15401 | 2097 ft | 0 kts | 335° |
| 2026-05-04 08:55 | 36.08477 | -115.15393 | 2097 ft | 4 kts | 340° |
| 2026-05-04 08:57 | 36.08400 | -115.15381 | 2097 ft | 0 kts | 245° |
| 2026-05-04 09:01 | 36.08397 | -115.15388 | 2097 ft | 4 kts | 245° |
| 2026-05-04 09:01 | 36.08386 | -115.15419 | 2097 ft | 7 kts | 245° |
| 2026-05-04 09:01 | 36.08363 | -115.15480 | 2098 ft | 9 kts | 245° |
| 2026-05-04 09:01 | 36.08336 | -115.15553 | 2099 ft | 9 kts | 245° |
| 2026-05-04 09:02 | 36.08280 | -115.15568 | 2099 ft | 10 kts | 160° |
| 2026-05-04 09:02 | 36.08212 | -115.15526 | 2099 ft | 12 kts | 154° |
| 2026-05-04 09:02 | 36.08126 | -115.15477 | 2098 ft | 15 kts | 159° |
| 2026-05-04 09:02 | 36.08026 | -115.15421 | 2098 ft | 17 kts | 151° |
| 2026-05-04 09:03 | 36.07924 | -115.15361 | 2099 ft | 15 kts | 155° |
| 2026-05-04 09:03 | 36.07838 | -115.15312 | 2100 ft | 10 kts | 155° |
| 2026-05-04 09:03 | 36.07805 | -115.15241 | 2101 ft | 11 kts | 92° |
| 2026-05-04 09:03 | 36.07805 | -115.15130 | 2100 ft | 15 kts | 90° |
| 2026-05-04 09:04 | 36.07797 | -115.14994 | 2100 ft | 17 kts | 95° |
| 2026-05-04 09:04 | 36.07786 | -115.14835 | 2099 ft | 20 kts | 95° |
| 2026-05-04 09:04 | 36.07774 | -115.14651 | 2097 ft | 22 kts | 95° |
| 2026-05-04 09:04 | 36.07763 | -115.14475 | 2097 ft | 21 kts | 94° |
| 2026-05-04 09:05 | 36.07754 | -115.14304 | 2096 ft | 20 kts | 90° |
| 2026-05-04 09:05 | 36.07754 | -115.14126 | 2094 ft | 22 kts | 89° |
| 2026-05-04 09:05 | 36.07754 | -115.13926 | 2093 ft | 23 kts | 90° |
| 2026-05-04 09:05 | 36.07754 | -115.13750 | 2093 ft | 22 kts | 90° |
| 2026-05-04 09:06 | 36.07754 | -115.13571 | 2092 ft | 21 kts | 89° |
| 2026-05-04 09:07 | 36.07740 | -115.12610 | 2062 ft | 0 kts | 135° |
| 2026-05-04 09:08 | 36.07728 | -115.12604 | 2062 ft | 6 kts | 160° |
| 2026-05-04 09:08 | 36.07673 | -115.12600 | 2063 ft | 7 kts | 180° |
| 2026-05-04 09:08 | 36.07643 | -115.12626 | 2064 ft | 5 kts | 253° |
| 2026-05-04 09:08 | 36.07643 | -115.12648 | 2065 ft | 0 kts | 269° |
| 2026-05-04 09:09 | 36.07643 | -115.12651 | 2065 ft | 3 kts | 269° |
| 2026-05-04 09:09 | 36.07642 | -115.12951 | 2076 ft | 71 kts | 270° |
| 2026-05-04 09:09 | 36.07641 | -115.13823 | 2093 ft | 129 kts | 270° |
| 2026-05-04 09:10 | 36.07641 | -115.15131 | 2122 ft | 173 kts | 270° |
| 2026-05-04 09:10 | 36.07646 | -115.16608 | 2798 ft | 169 kts | 265° |
| 2026-05-04 09:10 | 36.07653 | -115.18058 | 3526 ft | 170 kts | 266° |
| 2026-05-04 09:10 | 36.07647 | -115.19593 | 3925 ft | 189 kts | 266° |
| 2026-05-04 09:11 | 36.07555 | -115.21315 | 4292 ft | 213 kts | 258° |
| 2026-05-04 09:11 | 36.07285 | -115.23215 | 4822 ft | 233 kts | 258° |
| 2026-05-04 09:11 | 36.06785 | -115.25142 | 5613 ft | 239 kts | 235° |
| 2026-05-04 09:11 | 36.05552 | -115.26543 | 6238 ft | 253 kts | 204° |
| 2026-05-04 09:12 | 36.03869 | -115.27312 | 6986 ft | 261 kts | 198° |
| 2026-05-04 09:12 | 36.02144 | -115.28069 | 7710 ft | 266 kts | 198° |
| 2026-05-04 09:14 | 35.88942 | -115.31914 | 11284 ft | 319 kts | 191° |
| 2026-05-04 09:14 | 35.86747 | -115.32456 | 12020 ft | 325 kts | 191° |
| 2026-05-04 09:14 | 35.84521 | -115.33006 | 12839 ft | 327 kts | 191° |
| 2026-05-04 09:14 | 35.82276 | -115.33558 | 13599 ft | 331 kts | 192° |
| 2026-05-04 09:15 | 35.80028 | -115.34110 | 14260 ft | 335 kts | 192° |
| 2026-05-04 09:15 | 35.77701 | -115.34682 | 14947 ft | 338 kts | 193° |
| 2026-05-04 09:15 | 35.75387 | -115.35247 | 15628 ft | 341 kts | 194° |
| 2026-05-04 09:15 | 35.73086 | -115.35811 | 16308 ft | 343 kts | 194° |
| 2026-05-04 09:17 | 35.53451 | -115.38256 | 21260 ft | 374 kts | 184° |
| 2026-05-04 09:18 | 35.50844 | -115.38062 | 21803 ft | 377 kts | 184° |
| 2026-05-04 09:18 | 35.48211 | -115.37870 | 22329 ft | 380 kts | 184° |
| 2026-05-04 09:18 | 35.45577 | -115.37894 | 22839 ft | 375 kts | 194° |
| 2026-05-04 09:18 | 35.43047 | -115.38542 | 23349 ft | 369 kts | 204° |
| 2026-05-04 09:19 | 35.40703 | -115.39761 | 23816 ft | 365 kts | 213° |
| 2026-05-04 09:19 | 35.38452 | -115.41212 | 24281 ft | 365 kts | 213° |
| 2026-05-04 09:19 | 35.36204 | -115.42657 | 24820 ft | 365 kts | 213° |
| 2026-05-04 09:19 | 35.33953 | -115.44100 | 25307 ft | 365 kts | 214° |
| 2026-05-04 09:20 | 35.31703 | -115.45540 | 25806 ft | 366 kts | 214° |
| 2026-05-04 09:20 | 35.29446 | -115.46979 | 26274 ft | 366 kts | 214° |
| 2026-05-04 09:20 | 35.27177 | -115.48426 | 26745 ft | 367 kts | 214° |
| 2026-05-04 09:20 | 35.24915 | -115.49869 | 27233 ft | 367 kts | 214° |
| 2026-05-04 09:21 | 35.22645 | -115.51316 | 27696 ft | 368 kts | 214° |
| 2026-05-04 09:21 | 35.20369 | -115.52764 | 27885 ft | 367 kts | 214° |
| 2026-05-04 09:21 | 35.18117 | -115.54191 | 27902 ft | 362 kts | 214° |
| 2026-05-04 09:21 | 35.15891 | -115.55601 | 27904 ft | 360 kts | 214° |
| 2026-05-04 09:22 | 35.13707 | -115.57006 | 27901 ft | 357 kts | 217° |
| 2026-05-04 09:22 | 35.11729 | -115.58767 | 27881 ft | 348 kts | 227° |
| 2026-05-04 09:22 | 35.10046 | -115.60872 | 27901 ft | 346 kts | 230° |
| 2026-05-04 09:22 | 35.08394 | -115.62998 | 27901 ft | 345 kts | 230° |
| 2026-05-04 09:23 | 35.06737 | -115.65122 | 27916 ft | 345 kts | 230° |
| 2026-05-04 09:23 | 35.05078 | -115.67239 | 27906 ft | 344 kts | 230° |
| 2026-05-04 09:23 | 35.03419 | -115.69353 | 27906 ft | 344 kts | 230° |
| 2026-05-04 09:23 | 35.01766 | -115.71465 | 27906 ft | 344 kts | 230° |
| 2026-05-04 09:25 | 34.90175 | -115.86220 | 27899 ft | 344 kts | 230° |
| 2026-05-04 09:25 | 34.88516 | -115.88328 | 27899 ft | 344 kts | 230° |
| 2026-05-04 09:26 | 34.86860 | -115.90432 | 27893 ft | 344 kts | 230° |
| 2026-05-04 09:26 | 34.85201 | -115.92539 | 27890 ft | 344 kts | 230° |
| 2026-05-04 09:26 | 34.83543 | -115.94644 | 27890 ft | 344 kts | 230° |
| 2026-05-04 09:26 | 34.81887 | -115.96747 | 27908 ft | 344 kts | 230° |
| 2026-05-04 09:27 | 34.80228 | -115.98852 | 27882 ft | 344 kts | 229° |
| 2026-05-04 09:27 | 34.78575 | -116.00946 | 27894 ft | 343 kts | 229° |
| 2026-05-04 09:27 | 34.76921 | -116.03034 | 27895 ft | 342 kts | 229° |
| 2026-05-04 09:27 | 34.75269 | -116.05128 | 27897 ft | 341 kts | 230° |
| 2026-05-04 09:28 | 34.73631 | -116.07215 | 27897 ft | 341 kts | 230° |
| 2026-05-04 09:28 | 34.71993 | -116.09307 | 27897 ft | 341 kts | 230° |
| 2026-05-04 09:28 | 34.70357 | -116.11395 | 27899 ft | 341 kts | 230° |
| 2026-05-04 09:28 | 34.68745 | -116.13448 | 27896 ft | 340 kts | 229° |
| 2026-05-04 09:29 | 34.67110 | -116.15527 | 27893 ft | 340 kts | 229° |
| 2026-05-04 09:29 | 34.65476 | -116.17605 | 27893 ft | 340 kts | 230° |
| 2026-05-04 09:29 | 34.63845 | -116.19678 | 27888 ft | 339 kts | 230° |
| 2026-05-04 09:29 | 34.62210 | -116.21754 | 27888 ft | 340 kts | 229° |
| 2026-05-04 09:30 | 34.60574 | -116.23829 | 27889 ft | 340 kts | 229° |
| 2026-05-04 09:30 | 34.58938 | -116.25904 | 27888 ft | 340 kts | 229° |
| 2026-05-04 09:30 | 34.57301 | -116.27979 | 27886 ft | 340 kts | 229° |
| 2026-05-04 09:30 | 34.55667 | -116.30053 | 27887 ft | 340 kts | 229° |
| 2026-05-04 09:31 | 34.54038 | -116.32117 | 27891 ft | 339 kts | 229° |
| 2026-05-04 09:31 | 34.52403 | -116.34186 | 27890 ft | 340 kts | 229° |
| 2026-05-04 09:31 | 34.50770 | -116.36248 | 27749 ft | 338 kts | 229° |
| 2026-05-04 09:31 | 34.49146 | -116.38298 | 27486 ft | 336 kts | 229° |
| 2026-05-04 09:32 | 34.47529 | -116.40333 | 27197 ft | 335 kts | 229° |
| 2026-05-04 09:32 | 34.45914 | -116.42368 | 26938 ft | 335 kts | 229° |
| 2026-05-04 09:34 | 34.37199 | -116.58639 | 25262 ft | 331 kts | 242° |
| 2026-05-04 09:34 | 34.36166 | -116.61131 | 25029 ft | 331 kts | 242° |
| 2026-05-04 09:34 | 34.35135 | -116.63615 | 24750 ft | 328 kts | 242° |
| 2026-05-04 09:34 | 34.34116 | -116.66071 | 24247 ft | 325 kts | 242° |
| 2026-05-04 09:35 | 34.33108 | -116.68505 | 23747 ft | 323 kts | 243° |
| 2026-05-04 09:35 | 34.32120 | -116.70944 | 23355 ft | 323 kts | 243° |
| 2026-05-04 09:35 | 34.31142 | -116.73392 | 22926 ft | 324 kts | 244° |
| 2026-05-04 09:35 | 34.30167 | -116.75840 | 22557 ft | 322 kts | 243° |
| 2026-05-04 09:37 | 34.23382 | -116.92672 | 19860 ft | 316 kts | 243° |
| 2026-05-04 09:37 | 34.22420 | -116.95052 | 19476 ft | 314 kts | 244° |
| 2026-05-04 09:38 | 34.21463 | -116.97424 | 19100 ft | 314 kts | 244° |
| 2026-05-04 09:38 | 34.20682 | -116.99883 | 18785 ft | 314 kts | 251° |
| 2026-05-04 09:38 | 34.20011 | -117.02394 | 18496 ft | 314 kts | 250° |
| 2026-05-04 09:38 | 34.19334 | -117.04911 | 18183 ft | 315 kts | 250° |
| 2026-05-04 09:39 | 34.18654 | -117.07417 | 17818 ft | 313 kts | 250° |
| 2026-05-04 09:39 | 34.17974 | -117.09916 | 17523 ft | 313 kts | 250° |
| 2026-05-04 09:39 | 34.17292 | -117.12421 | 17251 ft | 313 kts | 250° |
| 2026-05-04 09:39 | 34.16613 | -117.14920 | 16957 ft | 313 kts | 250° |
| 2026-05-04 09:40 | 34.15935 | -117.17409 | 16635 ft | 312 kts | 250° |
| 2026-05-04 09:40 | 34.15252 | -117.19899 | 16349 ft | 312 kts | 250° |
| 2026-05-04 09:40 | 34.14567 | -117.22383 | 16007 ft | 312 kts | 250° |
| 2026-05-04 09:40 | 34.13881 | -117.24866 | 15667 ft | 312 kts | 250° |
| 2026-05-04 09:41 | 34.13196 | -117.27347 | 15340 ft | 312 kts | 250° |
| 2026-05-04 09:42 | 34.08599 | -117.44624 | 12803 ft | 300 kts | 252° |
| 2026-05-04 09:43 | 34.08009 | -117.47028 | 12434 ft | 298 kts | 252° |
| 2026-05-04 09:43 | 34.07415 | -117.49412 | 12057 ft | 296 kts | 251° |
| 2026-05-04 09:43 | 34.06647 | -117.51698 | 11747 ft | 294 kts | 246° |
| 2026-05-04 09:43 | 34.05834 | -117.53962 | 11455 ft | 294 kts | 246° |
| 2026-05-04 09:44 | 34.05022 | -117.56224 | 11164 ft | 293 kts | 246° |
| 2026-05-04 09:44 | 34.04212 | -117.58479 | 10856 ft | 293 kts | 246° |
| 2026-05-04 09:44 | 34.03402 | -117.60732 | 10556 ft | 292 kts | 246° |
| 2026-05-04 09:46 | 33.99923 | -117.76171 | 8859 ft | 267 kts | 262° |
| 2026-05-04 09:46 | 33.99704 | -117.78394 | 8593 ft | 267 kts | 262° |
| 2026-05-04 09:46 | 33.99487 | -117.80587 | 8324 ft | 267 kts | 262° |
| 2026-05-04 09:47 | 33.99268 | -117.82806 | 8066 ft | 267 kts | 262° |
| 2026-05-04 09:47 | 33.99052 | -117.85028 | 7778 ft | 266 kts | 263° |
| 2026-05-04 09:49 | 33.97639 | -117.99455 | 5991 ft | 252 kts | 263° |
| 2026-05-04 09:49 | 33.97431 | -118.01542 | 5723 ft | 249 kts | 263° |
| 2026-05-04 09:49 | 33.97224 | -118.03600 | 5467 ft | 247 kts | 262° |
| 2026-05-04 09:51 | 33.96045 | -118.15382 | 3895 ft | 231 kts | 262° |
| 2026-05-04 09:51 | 33.95854 | -118.17295 | 3586 ft | 229 kts | 262° |
| 2026-05-04 09:51 | 33.95666 | -118.19171 | 3281 ft | 228 kts | 262° |
| 2026-05-04 09:51 | 33.95476 | -118.21056 | 2979 ft | 225 kts | 262° |
| 2026-05-04 09:52 | 33.95295 | -118.22866 | 2689 ft | 207 kts | 262° |
| 2026-05-04 09:52 | 33.95131 | -118.24498 | 2410 ft | 186 kts | 262° |
| 2026-05-04 09:52 | 33.94983 | -118.25964 | 2177 ft | 166 kts | 263° |
| 2026-05-04 09:52 | 33.94851 | -118.27273 | 1968 ft | 148 kts | 262° |
| 2026-05-04 09:53 | 33.94732 | -118.28445 | 1773 ft | 136 kts | 262° |
| 2026-05-04 09:53 | 33.94620 | -118.29561 | 1587 ft | 133 kts | 263° |
| 2026-05-04 09:53 | 33.94509 | -118.30654 | 1406 ft | 131 kts | 262° |
| 2026-05-04 09:53 | 33.94399 | -118.31742 | 1226 ft | 131 kts | 262° |
| 2026-05-04 09:54 | 33.94289 | -118.32827 | 1048 ft | 131 kts | 263° |
| 2026-05-04 09:54 | 33.94178 | -118.33915 | 867 ft | 131 kts | 263° |
| 2026-05-04 09:54 | 33.94068 | -118.34997 | 687 ft | 130 kts | 263° |
| 2026-05-04 09:54 | 33.93958 | -118.36081 | 516 ft | 130 kts | 263° |
| 2026-05-04 09:55 | 33.93848 | -118.37165 | 353 ft | 129 kts | 264° |
| 2026-05-04 09:55 | 33.93741 | -118.38215 | 176 ft | 124 kts | 265° |
| 2026-05-04 09:55 | 33.93650 | -118.39151 | 124 ft | 93 kts | 262° |
| 2026-05-04 09:55 | 33.93600 | -118.39620 | 126 ft | 41 kts | 263° |
| 2026-05-04 09:56 | 33.93569 | -118.39945 | 126 ft | 35 kts | 263° |
| 2026-05-04 09:56 | 33.93571 | -118.40159 | 126 ft | 25 kts | 277° |
| 2026-05-04 09:56 | 33.93611 | -118.40321 | 123 ft | 14 kts | 290° |
| 2026-05-04 09:56 | 33.93627 | -118.40444 | 126 ft | 13 kts | 263° |
| 2026-05-04 09:57 | 33.93625 | -118.40461 | 126 ft | 0 kts | 263° |
| 2026-05-04 09:58 | 33.93624 | -118.40467 | 126 ft | 4 kts | 263° |
| 2026-05-04 09:58 | 33.93616 | -118.40542 | 124 ft | 13 kts | 262° |
| 2026-05-04 10:00 | 33.93909 | -118.40807 | 122 ft | 11 kts | 341° |
| 2026-05-04 10:00 | 33.93988 | -118.40818 | 124 ft | 13 kts | 354° |
| 2026-05-04 10:02 | 33.94090 | -118.40934 | 126 ft | 0 kts | 262° |